Time;durP1;ratioP1;P1;durP2;ratioP2;P2;SDS_P1;SDS_P2;PMS_P1;PMS_P2;Temp;Humidity;BMP_temperature;BMP_pressure;BME280_temperature;BME280_humidity;BME280_pressure;Samples;Min_cycle;Max_cycle;Signal;HPM_P1;HPM_P2
2022/07/02 00:00:39;;;;;;;4.72;1.52;;;;;;;14.26;100.00;101216.72;8301447;28;20052;-64
2022/07/02 00:04:46;;;;;;;3.67;1.30;;;;;;;14.28;100.00;101209.28;8317564;28;20460;-64
2022/07/02 00:08:46;;;;;;;5.13;1.63;;;;;;;13.92;100.00;101223.59;8306062;28;20132;-64
2022/07/02 00:12:47;;;;;;;2.95;1.55;;;;;;;13.94;100.00;101216.19;8313092;28;20048;-64
2022/07/02 00:16:47;;;;;;;8.38;1.83;;;;;;;13.70;100.00;101218.47;8319279;28;20118;-64
2022/07/02 00:20:48;;;;;;;2.55;1.60;;;;;;;13.78;100.00;101210.44;8318970;28;20069;-64
2022/07/02 00:24:49;;;;;;;3.58;1.90;;;;;;;13.73;100.00;101220.91;8300550;28;20037;-64
2022/07/02 00:28:58;;;;;;;2.63;1.63;;;;;;;13.74;100.00;101219.91;8318707;28;20075;-64
2022/07/02 00:33:00;;;;;;;4.53;1.65;;;;;;;13.60;100.00;101209.44;8318856;28;20041;-64
2022/07/02 00:37:01;;;;;;;4.68;1.70;;;;;;;13.67;100.00;101218.75;8318509;28;20449;-64
2022/07/02 00:41:03;;;;;;;3.95;1.65;;;;;;;13.65;100.00;101220.75;8318072;28;20042;-64
2022/07/02 00:45:05;;;;;;;5.60;2.17;;;;;;;13.35;100.00;101218.16;8318478;28;20049;-64
2022/07/02 00:49:07;;;;;;;3.33;1.77;;;;;;;13.19;100.00;101221.44;8317482;28;20113;-64
2022/07/02 00:53:07;;;;;;;6.07;1.98;;;;;;;13.23;100.00;101227.44;8317928;28;20493;-65
2022/07/02 00:57:08;;;;;;;5.15;1.73;;;;;;;13.12;100.00;101208.56;8309034;28;20393;-64
2022/07/02 01:01:08;;;;;;;6.80;1.85;;;;;;;13.13;100.00;101218.41;8347762;28;20053;-64
2022/07/02 01:05:09;;;;;;;4.25;2.03;;;;;;;13.11;100.00;101221.28;8313465;28;20050;-64
2022/07/02 01:10:19;;;;;;;2.65;1.90;;;;;;;13.10;100.00;101215.97;8316066;28;20042;-64
2022/07/02 01:13:32;;;;;;;5.50;1.90;;;;;;;13.02;100.00;101210.41;8318418;28;20446;-64
2022/07/02 01:17:33;;;;;;;2.55;1.77;;;;;;;12.96;100.00;101206.34;8312500;28;20501;-64
2022/07/02 01:21:33;;;;;;;5.75;1.90;;;;;;;12.89;100.00;101198.88;8318189;28;20459;-64
2022/07/02 01:25:33;;;;;;;5.28;1.88;;;;;;;12.89;100.00;101209.75;8318292;28;20057;-64
2022/07/02 01:29:34;;;;;;;3.97;2.20;;;;;;;12.82;100.00;101197.72;8318540;28;20092;-64
2022/07/02 01:33:34;;;;;;;3.83;1.83;;;;;;;12.75;100.00;101192.00;8315702;28;20289;-64
2022/07/02 01:37:38;;;;;;;5.60;2.33;;;;;;;12.70;100.00;101198.84;8314613;28;20102;-64
2022/07/02 01:41:38;;;;;;;1.77;1.67;;;;;;;12.67;100.00;101188.25;8316643;28;20037;-64
2022/07/02 01:45:39;;;;;;;4.20;1.83;;;;;;;12.49;100.00;101190.78;8317736;28;20124;-64
2022/07/02 01:49:40;;;;;;;3.33;1.60;;;;;;;12.48;100.00;101199.03;8320349;28;20120;-64
2022/07/02 01:53:41;;;;;;;2.70;2.10;;;;;;;12.45;100.00;101208.31;8307798;28;20041;-64
2022/07/02 01:57:41;;;;;;;4.53;1.80;;;;;;;12.40;100.00;101198.84;8305431;28;20088;-64
2022/07/02 02:01:43;;;;;;;6.35;1.80;;;;;;;12.34;100.00;101204.81;8309240;28;20052;-64
2022/07/02 02:05:43;;;;;;;3.50;2.03;;;;;;;12.34;100.00;101210.22;8300948;28;20053;-64
2022/07/02 02:09:43;;;;;;;6.70;2.17;;;;;;;12.36;100.00;101213.69;8305143;28;20049;-64
2022/07/02 02:13:44;;;;;;;3.42;2.00;;;;;;;12.38;100.00;101209.81;8304623;28;20516;-64
2022/07/02 02:17:44;;;;;;;3.00;1.85;;;;;;;12.42;100.00;101210.44;8307216;28;20049;-64
2022/07/02 02:21:44;;;;;;;5.32;1.98;;;;;;;12.37;100.00;101218.09;8308420;28;20038;-64
2022/07/02 02:25:45;;;;;;;2.38;1.80;;;;;;;12.38;100.00;101209.00;8304905;28;20478;-65
2022/07/02 02:29:45;;;;;;;6.55;2.28;;;;;;;12.49;100.00;101201.63;8300052;28;20041;-64
2022/07/02 02:33:46;;;;;;;5.03;2.20;;;;;;;12.48;100.00;101209.88;8297630;28;20636;-64
2022/07/02 02:37:46;;;;;;;7.18;2.50;;;;;;;12.43;100.00;101201.28;8301162;28;20288;-64
2022/07/02 02:41:46;;;;;;;4.80;2.03;;;;;;;12.36;100.00;101205.53;8299714;28;20053;-64
2022/07/02 02:45:48;;;;;;;7.63;2.00;;;;;;;12.23;100.00;101204.91;8305093;28;20351;-64
2022/07/02 02:49:49;;;;;;;5.18;2.03;;;;;;;12.09;100.00;101205.25;8300338;28;20124;-64
2022/07/02 02:53:49;;;;;;;5.75;1.88;;;;;;;12.07;100.00;101209.97;8299116;28;20103;-64
2022/07/02 02:57:50;;;;;;;5.22;1.90;;;;;;;12.01;100.00;101203.19;8298790;28;20466;-64
2022/07/02 03:01:50;;;;;;;4.82;2.58;;;;;;;11.92;100.00;101205.88;8299930;28;20056;-64
2022/07/02 03:05:50;;;;;;;2.35;1.52;;;;;;;11.92;100.00;101216.72;8296044;28;20050;-64
2022/07/02 03:09:51;;;;;;;6.75;2.30;;;;;;;11.93;100.00;101207.56;8324481;28;20049;-64
2022/07/02 03:13:51;;;;;;;4.43;2.57;;;;;;;11.88;100.00;101225.09;8296439;28;20045;-64
2022/07/02 03:17:51;;;;;;;8.88;2.10;;;;;;;11.78;100.00;101226.00;8298679;28;20288;-64
2022/07/02 03:21:52;;;;;;;4.72;2.10;;;;;;;11.78;100.00;101228.72;8300848;28;20418;-64
2022/07/02 03:25:52;;;;;;;5.70;2.08;;;;;;;11.79;100.00;101227.72;8297104;28;20042;-64
2022/07/02 03:29:53;;;;;;;3.72;1.90;;;;;;;11.75;100.00;101232.53;8302936;28;20502;-64
2022/07/02 03:33:53;;;;;;;4.00;2.70;;;;;;;11.79;100.00;101228.59;8298931;28;20045;-64
2022/07/02 03:37:53;;;;;;;3.70;1.93;;;;;;;11.79;100.00;101234.00;8297905;28;20152;-64
2022/07/02 03:41:54;;;;;;;5.00;3.05;;;;;;;11.72;100.00;101238.22;8294990;28;20768;-64
2022/07/02 03:45:54;;;;;;;6.20;2.20;;;;;;;11.72;100.00;101226.53;8296933;28;20042;-64
2022/07/02 03:49:55;;;;;;;3.70;2.22;;;;;;;11.76;100.00;101228.84;8305195;28;20513;-64
2022/07/02 03:53:55;;;;;;;3.85;2.00;;;;;;;11.87;100.00;101222.53;8304045;28;20041;-64
2022/07/02 03:57:55;;;;;;;7.22;2.58;;;;;;;12.04;100.00;101226.50;8300408;28;20091;-64
2022/07/02 04:01:56;;;;;;;4.70;2.60;;;;;;;11.96;100.00;101224.44;8302787;28;20059;-64
2022/07/02 04:05:56;;;;;;;6.00;2.30;;;;;;;12.03;100.00;101227.47;8297385;28;20092;-64
2022/07/02 04:09:56;;;;;;;6.35;2.83;;;;;;;12.11;100.00;101227.66;8295720;28;20682;-64
2022/07/02 04:13:57;;;;;;;13.75;2.20;;;;;;;12.22;100.00;101230.28;8301357;28;20045;-64
2022/07/02 04:17:57;;;;;;;8.63;1.87;;;;;;;12.32;100.00;101228.50;8296674;28;20099;-64
2022/07/02 04:22:01;;;;;;;4.75;1.65;;;;;;;12.41;100.00;101233.13;8298050;28;20316;-64
2022/07/02 04:26:01;;;;;;;5.57;1.65;;;;;;;12.51;100.00;101231.31;8300270;28;20044;-64
2022/07/02 04:30:02;;;;;;;4.40;1.90;;;;;;;12.51;100.00;101242.16;8301537;28;20057;-64
2022/07/02 04:34:03;;;;;;;3.05;1.75;;;;;;;12.48;100.00;101237.88;8304124;28;20685;-66
2022/07/02 04:38:04;;;;;;;9.43;1.98;;;;;;;12.69;100.00;101235.13;8300004;28;20037;-64
2022/07/02 04:42:05;;;;;;;10.90;2.83;;;;;;;12.95;100.00;101236.34;8296053;28;20046;-64
2022/07/02 04:46:05;;;;;;;4.72;1.73;;;;;;;13.17;100.00;101241.56;8296398;28;20071;-64
2022/07/02 04:50:06;;;;;;;4.65;1.90;;;;;;;13.52;100.00;101236.50;8303577;28;20048;-64
2022/07/02 04:54:07;;;;;;;2.90;1.38;;;;;;;13.62;100.00;101235.50;8299270;28;20123;-64
2022/07/02 04:58:07;;;;;;;5.97;2.00;;;;;;;13.54;100.00;101234.47;8297092;28;20044;-64
2022/07/02 05:02:07;;;;;;;4.82;1.65;;;;;;;13.74;100.00;101230.78;8299225;28;20825;-64
2022/07/02 05:06:08;;;;;;;2.63;1.40;;;;;;;13.84;100.00;101226.19;8304115;28;20046;-64
2022/07/02 05:10:08;;;;;;;8.52;1.63;;;;;;;13.99;100.00;101224.75;8294742;28;21226;-64
2022/07/02 05:14:09;;;;;;;6.15;1.63;;;;;;;14.24;100.00;101235.03;8300599;28;20478;-64
2022/07/02 05:18:09;;;;;;;3.20;1.20;;;;;;;14.38;100.00;101237.28;8298467;28;20487;-64
2022/07/02 05:22:10;;;;;;;7.43;1.33;;;;;;;14.53;99.79;101230.38;8300318;28;20080;-64
2022/07/02 05:26:10;;;;;;;3.58;1.75;;;;;;;14.86;98.83;101237.97;8310000;28;20068;-64
2022/07/02 05:30:11;;;;;;;6.95;1.30;;;;;;;14.98;98.75;101228.56;8307821;28;20048;-64
2022/07/02 05:34:11;;;;;;;4.93;1.48;;;;;;;15.39;98.10;101240.84;8310641;28;20525;-64
2022/07/02 05:38:12;;;;;;;5.20;1.40;;;;;;;15.73;97.70;101235.59;8308834;28;20050;-64
2022/07/02 05:42:12;;;;;;;3.65;1.40;;;;;;;15.87;95.80;101243.19;8301996;28;20336;-64
2022/07/02 05:46:13;;;;;;;6.17;1.00;;;;;;;16.08;95.28;101241.00;8310370;28;20049;-64
2022/07/02 05:50:13;;;;;;;2.00;0.98;;;;;;;16.40;94.87;101243.94;8310182;28;20301;-64
2022/07/02 05:54:14;;;;;;;1.73;1.10;;;;;;;16.27;94.31;101244.38;8304808;28;20041;-64
2022/07/02 05:58:14;;;;;;;4.05;1.10;;;;;;;16.27;95.27;101254.44;8307890;28;20292;-64
2022/07/02 06:02:14;;;;;;;5.53;1.10;;;;;;;16.69;93.90;101245.41;8305306;28;20097;-64
2022/07/02 06:07:47;;;;;;;6.03;1.40;;;;;;;16.93;93.13;101252.84;8305003;28;20838;-64
2022/07/02 06:10:35;;;;;;;2.83;1.08;;;;;;;16.98;90.46;101247.72;8306884;28;20284;-64
2022/07/02 06:14:35;;;;;;;4.93;0.80;;;;;;;17.09;90.32;101258.38;8298445;28;20068;-64
2022/07/02 06:18:36;;;;;;;4.43;1.20;;;;;;;17.35;88.65;101264.63;8295921;28;20041;-64
2022/07/02 06:22:36;;;;;;;5.10;1.00;;;;;;;17.60;90.16;101271.94;8310317;28;20042;-64
2022/07/02 06:26:37;;;;;;;3.50;1.25;;;;;;;17.96;87.11;101272.50;8305052;28;20052;-64
2022/07/02 06:30:37;;;;;;;3.05;0.75;;;;;;;18.15;87.27;101264.81;8308795;28;20042;-64
2022/07/02 06:34:37;;;;;;;5.28;1.15;;;;;;;18.35;87.35;101260.69;8306814;28;20045;-64
2022/07/02 06:38:38;;;;;;;3.13;0.77;;;;;;;18.63;83.47;101253.81;8300763;28;20038;-64
2022/07/02 06:42:38;;;;;;;3.15;0.95;;;;;;;19.01;82.17;101264.00;8302943;28;20459;-64
2022/07/02 06:46:39;;;;;;;1.75;0.57;;;;;;;19.48;78.01;101262.09;8307717;28;20037;-64
2022/07/02 06:50:39;;;;;;;4.38;0.90;;;;;;;19.44;78.95;101263.50;8305788;28;20037;-64
2022/07/02 06:54:40;;;;;;;1.17;0.60;;;;;;;19.68;77.03;101256.13;8303296;28;20041;-65
2022/07/02 06:58:40;;;;;;;1.95;0.70;;;;;;;20.21;78.79;101248.72;8304275;28;20657;-64
2022/07/02 07:02:40;;;;;;;3.42;0.82;;;;;;;20.14;78.39;101252.41;8308807;28;20041;-64
2022/07/02 07:06:51;;;;;;;2.20;0.47;;;;;;;20.22;75.62;101238.59;8304401;28;20073;-64
2022/07/02 07:10:52;;;;;;;5.28;0.60;;;;;;;20.43;73.92;101247.00;8300791;28;20504;-64
2022/07/02 07:14:52;;;;;;;1.80;0.77;;;;;;;20.53;71.60;101242.06;8312290;28;20107;-64
2022/07/02 07:19:01;;;;;;;2.58;1.02;;;;;;;21.04;71.40;101243.91;8310544;28;20061;-64
2022/07/02 07:23:02;;;;;;;5.82;0.50;;;;;;;20.89;67.84;101237.56;8299377;28;20045;-64
2022/07/02 07:27:02;;;;;;;3.85;0.70;;;;;;;21.05;68.53;101245.66;8310825;28;20147;-64
2022/07/02 07:31:03;;;;;;;1.33;0.30;;;;;;;21.04;69.24;101235.66;8301008;28;20061;-64
2022/07/02 07:35:04;;;;;;;3.33;0.57;;;;;;;21.29;67.19;101245.34;8309912;28;20679;-65
2022/07/02 07:39:05;;;;;;;1.40;0.40;;;;;;;21.51;71.41;101237.97;8317957;28;20042;-65
2022/07/02 07:43:06;;;;;;;2.75;0.70;;;;;;;21.81;67.40;101234.13;8319209;28;20045;-65
2022/07/02 07:47:06;;;;;;;1.75;0.70;;;;;;;22.17;69.23;101240.41;8319320;28;20033;-65
2022/07/02 07:51:06;;;;;;;3.65;0.40;;;;;;;22.14;66.68;101243.56;8320122;28;20052;-65
2022/07/02 07:55:08;;;;;;;2.35;0.60;;;;;;;22.27;65.90;101241.78;8319553;28;20116;-64
2022/07/02 07:59:08;;;;;;;2.00;0.40;;;;;;;22.25;66.97;101238.38;8320532;28;20041;-64
2022/07/02 08:03:10;;;;;;;2.58;0.50;;;;;;;22.86;65.36;101237.59;8319495;28;20053;-64
2022/07/02 08:07:10;;;;;;;2.55;0.70;;;;;;;22.80;63.94;101232.03;8315873;28;20051;-64
2022/07/02 08:11:11;;;;;;;2.35;0.40;;;;;;;23.07;62.57;101234.75;8316391;28;20614;-64
2022/07/02 08:15:11;;;;;;;3.53;0.68;;;;;;;22.94;60.79;101244.84;8317730;28;20148;-64
2022/07/02 08:19:12;;;;;;;1.52;0.50;;;;;;;23.03;61.88;101238.94;8317524;28;20059;-65
2022/07/02 08:23:12;;;;;;;2.50;0.38;;;;;;;22.84;61.44;101236.94;8315814;28;20069;-65
2022/07/02 08:27:13;;;;;;;2.22;0.45;;;;;;;23.25;62.45;101230.59;8317153;28;20049;-65
2022/07/02 08:31:13;;;;;;;1.90;0.30;;;;;;;23.46;60.04;101222.19;8316808;28;20410;-65
2022/07/02 08:35:14;;;;;;;3.17;0.43;;;;;;;23.45;58.44;101226.03;8316582;28;20041;-65
2022/07/02 08:39:14;;;;;;;3.10;0.40;;;;;;;23.64;57.71;101219.72;8315378;28;20716;-65
2022/07/02 08:43:15;;;;;;;1.80;0.50;;;;;;;23.73;55.72;101212.94;8306939;28;20045;-65
2022/07/02 08:47:16;;;;;;;2.58;0.52;;;;;;;24.16;55.42;101208.78;8291557;28;20042;-65
2022/07/02 08:51:20;;;;;;;1.33;0.43;;;;;;;24.07;55.63;101210.06;8297202;28;20037;-65
2022/07/02 08:55:22;;;;;;;1.00;0.33;;;;;;;23.77;55.71;101208.69;8296408;28;20042;-65
2022/07/02 08:59:22;;;;;;;1.80;0.40;;;;;;;23.97;53.18;101209.63;8298613;28;20049;-65
2022/07/02 09:03:23;;;;;;;1.13;0.50;;;;;;;23.42;54.13;101210.72;8301609;28;20042;-65
2022/07/02 09:07:23;;;;;;;2.08;0.40;;;;;;;23.46;53.37;101205.63;8307056;28;20049;-64
2022/07/02 09:11:24;;;;;;;2.13;0.50;;;;;;;23.98;53.09;101205.78;8302246;28;20045;-64
2022/07/02 09:15:25;;;;;;;3.97;0.30;;;;;;;24.27;50.78;101202.59;8311072;28;20037;-64
2022/07/02 09:19:26;;;;;;;2.88;0.60;;;;;;;24.72;48.39;101180.47;8308727;28;20041;-64
2022/07/02 09:23:26;;;;;;;3.60;0.35;;;;;;;24.60;48.72;101184.06;8314423;28;20122;-64
2022/07/02 09:27:27;;;;;;;2.38;0.32;;;;;;;24.85;48.43;101172.13;8316904;28;20414;-64
2022/07/02 09:31:29;;;;;;;2.38;0.35;;;;;;;24.91;49.34;101175.94;8321337;28;20509;-64
2022/07/02 09:35:29;;;;;;;2.15;0.50;;;;;;;25.03;48.21;101174.19;8320489;28;20041;-62
2022/07/02 09:39:30;;;;;;;0.70;0.30;;;;;;;25.03;50.04;101168.66;8321713;28;20510;-65
2022/07/02 09:43:32;;;;;;;3.40;0.60;;;;;;;24.82;48.26;101166.19;8322755;28;20498;-64
2022/07/02 09:47:39;;;;;;;0.50;0.30;;;;;;;24.93;48.99;101173.81;8323578;28;20049;-64
2022/07/02 09:56:04;;;;;;;1.25;0.25;;;;;;;25.06;47.73;101156.31;8385600;27;20390;-63
2022/07/02 10:00:07;;;;;;;4.07;0.40;;;;;;;25.65;48.70;101152.19;8344475;28;20047;-62
2022/07/02 10:04:07;;;;;;;1.20;0.45;;;;;;;26.38;46.40;101159.72;8355343;28;20095;-63
2022/07/02 10:08:08;;;;;;;1.80;0.30;;;;;;;28.09;46.39;101150.94;8344858;28;20532;-63
2022/07/02 10:12:09;;;;;;;1.92;0.40;;;;;;;28.84;43.72;101152.75;8342746;28;20284;-62
2022/07/02 10:16:17;;;;;;;1.00;0.30;;;;;;;30.55;42.00;101150.53;8334813;28;20037;-63
2022/07/02 10:20:18;;;;;;;1.58;0.35;;;;;;;27.87;42.61;101149.81;8336522;28;20425;-63
2022/07/02 10:24:21;;;;;;;4.00;0.38;;;;;;;27.20;46.27;101141.75;8334338;28;20041;-63
2022/07/02 10:28:21;;;;;;;4.03;0.30;;;;;;;28.39;41.25;101129.44;8332143;28;20049;-63
2022/07/02 10:32:35;;;;;;;2.00;0.20;;;;;;;30.59;40.89;101112.59;8334946;28;20103;-63
2022/07/02 10:36:36;;;;;;;0.55;0.30;;;;;;;30.17;41.21;101107.50;8324785;28;20113;-62
2022/07/02 10:40:48;;;;;;;1.92;0.40;;;;;;;29.69;41.05;101114.72;8334753;28;20054;-63
2022/07/02 10:44:48;;;;;;;1.25;0.40;;;;;;;29.92;42.02;101106.22;8329593;28;20140;-63
2022/07/02 10:48:54;;;;;;;1.97;0.40;;;;;;;31.13;40.13;101115.31;8334282;28;20037;-63
2022/07/02 10:52:54;;;;;;;0.70;0.30;;;;;;;31.00;40.05;101107.34;8331960;28;20288;-62
2022/07/02 10:56:55;;;;;;;1.58;0.28;;;;;;;32.76;38.51;101098.69;8334201;28;20857;-63
2022/07/02 11:00:56;;;;;;;2.67;0.40;;;;;;;32.15;40.12;101108.63;8344423;28;20041;-63
2022/07/02 11:05:07;;;;;;;0.95;0.28;;;;;;;33.16;38.63;101104.50;8337370;28;20048;-63
2022/07/02 11:09:08;;;;;;;1.40;0.40;;;;;;;32.61;40.14;101095.78;8295237;28;20049;-63
2022/07/02 11:13:08;;;;;;;0.45;0.20;;;;;;;32.32;38.46;101096.41;8318492;28;20048;-63
2022/07/02 11:17:15;;;;;;;4.45;0.40;;;;;;;32.03;38.18;101091.16;8308162;28;20056;-62
2022/07/02 11:21:16;;;;;;;3.80;0.40;;;;;;;31.69;38.33;101084.13;8311521;28;20068;-63
2022/07/02 11:25:17;;;;;;;2.08;0.30;;;;;;;31.61;38.04;101078.16;8315783;28;20072;-63
2022/07/02 11:29:18;;;;;;;1.10;0.30;;;;;;;32.52;38.64;101063.81;8312428;28;20093;-63
2022/07/02 11:33:19;;;;;;;1.10;0.30;;;;;;;33.22;36.97;101066.94;8298924;28;20060;-63
2022/07/02 11:37:21;;;;;;;0.73;0.28;;;;;;;33.11;35.98;101067.19;8311478;28;20565;-64
2022/07/02 11:41:28;;;;;;;0.90;0.28;;;;;;;32.79;38.19;101064.50;8304895;28;20050;-63
2022/07/02 11:45:28;;;;;;;1.08;0.30;;;;;;;33.33;36.96;101054.63;8304499;28;20045;-64
2022/07/02 11:49:33;;;;;;;1.67;0.30;;;;;;;31.64;38.94;101044.06;8325762;28;20095;-63
2022/07/02 11:53:34;;;;;;;1.70;0.30;;;;;;;32.46;36.95;101042.50;8316036;28;20072;-64
2022/07/02 11:57:35;;;;;;;0.82;0.28;;;;;;;31.72;38.67;101041.63;8315775;28;20120;-63
2022/07/02 12:01:36;;;;;;;1.98;0.30;;;;;;;32.15;38.38;101033.03;8322671;28;20041;-63
2022/07/02 12:05:48;;;;;;;1.70;0.43;;;;;;;31.18;39.07;101036.28;8322044;28;20363;-63
2022/07/02 12:09:48;;;;;;;0.80;0.30;;;;;;;31.05;39.92;101028.34;8316334;28;20061;-63
2022/07/02 12:13:50;;;;;;;2.42;0.50;;;;;;;29.85;42.60;101036.66;8300268;28;20042;-64
2022/07/02 12:17:50;;;;;;;1.20;0.32;;;;;;;28.43;43.62;101017.41;8318772;28;20038;-62
2022/07/02 12:21:51;;;;;;;0.38;0.20;;;;;;;27.75;45.04;101009.91;8321653;28;20043;-63
2022/07/02 12:25:51;;;;;;;1.17;0.30;;;;;;;27.24;46.49;101004.09;8314958;28;20045;-63
2022/07/02 12:29:53;;;;;;;2.10;0.30;;;;;;;27.03;47.29;101001.88;8308267;28;20049;-63
2022/07/02 12:33:56;;;;;;;2.00;0.30;;;;;;;27.02;46.59;100986.31;8310231;28;20280;-63
2022/07/02 12:37:57;;;;;;;0.57;0.22;;;;;;;26.93;45.79;100979.38;8318507;28;20040;-63
2022/07/02 12:41:58;;;;;;;2.05;0.35;;;;;;;27.16;47.25;100973.88;8305447;28;20407;-63
2022/07/02 12:46:07;;;;;;;1.63;0.30;;;;;;;26.61;46.38;100960.16;8311827;28;20065;-62
2022/07/02 12:50:13;;;;;;;1.23;0.50;;;;;;;26.63;47.59;100963.56;8304388;28;20034;-62
2022/07/02 12:54:13;;;;;;;2.80;0.60;;;;;;;26.62;46.71;100959.09;8308615;28;20053;-62
2022/07/02 12:58:14;;;;;;;0.87;0.30;;;;;;;26.88;47.25;100949.56;8314577;28;20053;-63
2022/07/02 13:02:18;;;;;;;9.27;0.68;;;;;;;27.43;49.83;100942.72;8329284;28;20533;-63
2022/07/02 13:06:18;;;;;;;;;;;;;;;27.32;46.04;100934.38;8323256;28;20505;-63
2022/07/02 13:10:20;;;;;;;3.15;0.80;;;;;;;26.89;48.25;100933.75;8299352;28;20404;-62
2022/07/02 13:14:21;;;;;;;2.10;0.30;;;;;;;26.81;46.79;100930.22;8295943;28;20060;-62
2022/07/02 13:18:22;;;;;;;1.67;0.50;;;;;;;26.72;46.78;100926.09;8297416;28;20041;-63
2022/07/02 13:22:26;;;;;;;4.45;0.50;;;;;;;26.64;46.64;100914.47;8296485;28;20042;-63
2022/07/02 13:26:26;;;;;;;1.00;0.30;;;;;;;26.81;47.35;100910.78;8300451;28;20548;-63
2022/07/02 13:30:27;;;;;;;0.82;0.30;;;;;;;26.84;49.63;100910.31;8299148;28;20049;-63
2022/07/02 13:34:27;;;;;;;1.30;0.40;;;;;;;26.94;47.43;100901.44;8310949;28;20115;-63
2022/07/02 13:38:28;;;;;;;1.38;0.43;;;;;;;26.82;48.67;100900.53;8303137;28;20048;-63
2022/07/02 13:42:29;;;;;;;5.15;0.40;;;;;;;26.96;47.58;100907.59;8323525;28;20108;-63
2022/07/02 13:46:29;;;;;;;1.08;0.30;;;;;;;27.05;47.65;100888.66;8304424;28;20413;-63
2022/07/02 13:50:29;;;;;;;2.70;0.30;;;;;;;27.06;46.07;100893.13;8296577;28;20052;-63
2022/07/02 13:54:30;;;;;;;3.60;0.30;;;;;;;26.90;48.03;100888.25;8299465;28;20045;-63
2022/07/02 13:58:31;;;;;;;5.22;0.55;;;;;;;27.51;45.87;100872.06;8310970;28;20052;-63
2022/07/02 14:02:32;;;;;;;0.80;0.47;;;;;;;27.40;44.45;100878.44;8299060;28;20823;-63
2022/07/02 14:06:33;;;;;;;2.55;0.25;;;;;;;27.27;46.67;100870.34;8290843;28;20413;-63
2022/07/02 14:10:33;;;;;;;0.63;0.30;;;;;;;27.40;44.28;100865.41;8302569;28;20063;-63
2022/07/02 14:14:35;;;;;;;0.82;0.20;;;;;;;27.81;44.00;100864.41;8304011;28;20077;-63
2022/07/02 14:18:36;;;;;;;0.80;0.40;;;;;;;27.80;43.89;100865.47;8302225;28;20049;-63
2022/07/02 14:22:36;;;;;;;2.97;0.20;;;;;;;27.67;44.49;100862.97;8294684;28;20057;-63
2022/07/02 14:26:37;;;;;;;1.05;0.30;;;;;;;27.82;44.09;100857.75;8298415;28;20091;-63
2022/07/02 14:30:39;;;;;;;0.57;0.20;;;;;;;27.66;45.75;100852.97;8298762;28;20572;-63
2022/07/02 14:34:40;;;;;;;3.47;0.45;;;;;;;27.85;45.46;100843.38;8290047;28;20103;-63
2022/07/02 14:38:40;;;;;;;2.05;0.30;;;;;;;27.69;43.75;100838.56;8285145;28;20371;-63
2022/07/02 14:42:41;;;;;;;1.63;0.50;;;;;;;27.35;45.73;100825.56;8307253;28;20124;-63
2022/07/02 14:46:42;;;;;;;0.52;0.40;;;;;;;27.41;45.62;100822.66;8307313;28;20284;-63
2022/07/02 14:50:42;;;;;;;2.10;0.25;;;;;;;27.60;46.01;100829.75;8305817;28;20037;-63
2022/07/02 14:54:43;;;;;;;3.13;0.40;;;;;;;27.61;44.58;100827.81;8302515;28;20421;-62
2022/07/02 14:58:43;;;;;;;4.20;0.85;;;;;;;27.40;45.41;100817.34;8295310;28;20490;-63
2022/07/02 15:02:44;;;;;;;1.05;0.30;;;;;;;27.41;46.35;100805.16;8301839;28;20037;-63
2022/07/02 15:06:44;;;;;;;1.95;0.45;;;;;;;27.63;45.86;100803.44;8305137;28;20149;-62
2022/07/02 15:10:45;;;;;;;0.28;0.25;;;;;;;27.57;45.28;100798.84;8307531;28;20063;-61
2022/07/02 15:16:02;;;;;;;0.90;0.30;;;;;;;27.63;45.19;100795.91;8303984;28;20096;-63
2022/07/02 15:19:05;;;;;;;2.22;0.30;;;;;;;27.60;44.97;100788.06;8298361;28;20357;-63
2022/07/02 15:23:07;;;;;;;2.28;0.30;;;;;;;27.92;45.20;100782.94;8302016;28;20104;-63
2022/07/02 15:27:11;;;;;;;2.50;0.55;;;;;;;27.67;44.77;100776.81;8302147;28;20136;-64
2022/07/02 15:31:12;;;;;;;;;;;;;;;27.45;44.76;100773.03;8306985;28;20064;-64
2022/07/02 15:35:12;;;;;;;2.33;0.32;;;;;;;27.47;46.00;100770.84;8317122;28;20542;-62
2022/07/02 15:39:14;;;;;;;0.88;0.50;;;;;;;27.72;44.91;100766.66;8297007;28;20472;-62
2022/07/02 15:43:15;;;;;;;0.82;0.52;;;;;;;27.83;45.17;100764.94;8304281;28;20048;-62
2022/07/02 15:47:16;;;;;;;2.15;0.30;;;;;;;28.00;44.46;100757.53;8313514;28;20084;-62
2022/07/02 15:51:31;;;;;;;0.73;0.40;;;;;;;27.95;44.19;100761.06;8318893;28;20052;-63
2022/07/02 15:55:38;;;;;;;1.50;0.30;;;;;;;27.78;44.18;100762.06;8310445;28;20460;-63
2022/07/02 15:59:40;;;;;;;2.38;0.30;;;;;;;27.74;45.41;100755.28;8298564;28;20029;-61
2022/07/02 16:03:49;;;;;;;2.70;0.30;;;;;;;27.79;44.69;100749.84;8302630;28;20100;-62
2022/07/02 16:07:51;;;;;;;2.30;0.30;;;;;;;27.66;44.50;100744.59;8308881;28;20042;-62
2022/07/02 16:11:54;;;;;;;0.80;0.40;;;;;;;27.75;44.93;100740.31;8305042;28;20034;-63
2022/07/02 16:15:55;;;;;;;2.83;0.52;;;;;;;27.79;45.46;100735.94;8315175;28;20048;-62
2022/07/02 16:19:58;;;;;;;3.33;0.30;;;;;;;27.54;45.70;100727.91;8319034;28;20124;-63
2022/07/02 16:24:00;;;;;;;1.33;0.30;;;;;;;27.85;45.26;100723.84;8308740;28;20123;-63
2022/07/02 16:28:01;;;;;;;3.17;0.30;;;;;;;27.98;44.85;100720.78;8304500;28;20049;-63
2022/07/02 16:32:03;;;;;;;2.23;0.70;;;;;;;28.20;45.50;100710.63;8305315;28;20069;-63
2022/07/02 16:36:05;;;;;;;1.85;0.68;;;;;;;28.15;45.49;100716.13;8308938;28;20709;-63
2022/07/02 16:40:07;;;;;;;2.22;1.25;;;;;;;27.93;46.74;100706.81;8310312;28;20033;-63
2022/07/02 16:44:09;;;;;;;1.70;0.52;;;;;;;27.72;46.43;100701.91;8314343;28;20049;-63
2022/07/02 16:48:12;;;;;;;1.60;0.45;;;;;;;27.83;47.75;100706.56;8302335;28;20041;-63
2022/07/02 16:52:14;;;;;;;3.13;0.30;;;;;;;27.79;47.12;100710.94;8337998;28;20056;-63
2022/07/02 16:56:15;;;;;;;1.52;0.45;;;;;;;27.72;45.60;100710.25;8314923;28;20053;-63
2022/07/02 17:00:16;;;;;;;2.67;0.40;;;;;;;27.66;46.49;100709.28;8325325;28;20098;-64
2022/07/02 17:04:16;;;;;;;6.30;1.65;;;;;;;27.77;45.28;100708.41;8321586;28;20053;-64
2022/07/02 17:08:17;;;;;;;1.63;0.40;;;;;;;27.86;49.03;100697.75;8315870;28;20492;-64
2022/07/02 17:12:17;;;;;;;2.17;0.30;;;;;;;27.69;47.09;100707.97;8311878;28;20037;-64
2022/07/02 17:16:18;;;;;;;1.77;0.40;;;;;;;27.57;45.23;100698.81;8309298;28;20295;-64
2022/07/02 17:20:18;;;;;;;5.07;2.20;;;;;;;27.79;45.48;100702.59;8315018;28;20037;-64
2022/07/02 17:24:19;;;;;;;0.70;0.30;;;;;;;27.80;46.73;100698.72;8313526;28;20288;-64
2022/07/02 17:28:20;;;;;;;5.10;0.75;;;;;;;27.69;46.13;100691.28;8301063;28;20048;-65
2022/07/02 17:32:20;;;;;;;2.13;0.60;;;;;;;27.70;46.31;100698.53;8306785;28;20076;-63
2022/07/02 17:36:20;;;;;;;2.83;0.50;;;;;;;27.48;47.44;100691.97;8308882;28;20045;-64
2022/07/02 17:40:21;;;;;;;4.57;0.33;;;;;;;27.52;47.29;100690.38;8294271;28;20042;-63
2022/07/02 17:44:22;;;;;;;1.25;0.40;;;;;;;27.42;49.94;100688.25;8300906;28;20048;-64
2022/07/02 17:48:23;;;;;;;4.00;0.50;;;;;;;27.50;47.38;100687.84;8301963;28;20048;-63
2022/07/02 17:52:24;;;;;;;2.83;0.30;;;;;;;27.66;47.66;100689.00;8303235;28;20500;-64
2022/07/02 17:56:25;;;;;;;3.63;0.52;;;;;;;27.45;49.16;100684.13;8303277;28;20095;-61
2022/07/02 18:00:27;;;;;;;3.05;0.90;;;;;;;27.58;48.53;100689.38;8303632;28;20430;-64
2022/07/02 18:04:27;;;;;;;3.78;0.52;;;;;;;27.53;45.88;100684.56;8301889;28;20125;-64
2022/07/02 18:08:29;;;;;;;1.60;0.40;;;;;;;27.55;44.73;100678.78;8308741;28;20037;-64
2022/07/02 18:12:30;;;;;;;2.10;0.40;;;;;;;27.38;45.33;100677.88;8293739;28;20068;-64
2022/07/02 18:16:30;;;;;;;1.55;0.40;;;;;;;27.39;45.18;100674.84;8298319;28;20057;-64
2022/07/02 18:20:31;;;;;;;4.65;0.50;;;;;;;27.25;50.37;100667.03;8306459;28;20189;-64
2022/07/02 18:24:33;;;;;;;0.68;0.40;;;;;;;26.89;55.18;100678.44;8305357;28;20048;-64
2022/07/02 18:28:33;;;;;;;1.30;0.57;;;;;;;26.86;51.89;100678.91;8284576;28;20384;-64
2022/07/02 18:32:34;;;;;;;2.13;0.32;;;;;;;26.35;52.89;100677.63;8303630;28;20088;-64
2022/07/02 18:36:34;;;;;;;10.13;6.72;;;;;;;26.20;53.36;100680.03;8304023;28;20049;-64
2022/07/02 18:40:35;;;;;;;5.15;1.25;;;;;;;25.90;53.69;100682.00;8301717;28;20042;-64
2022/07/02 18:44:36;;;;;;;2.13;0.50;;;;;;;25.86;52.67;100680.75;8295125;28;20076;-64